createdAt,value
2017-10-16T00:00:58.705Z,32.27
2017-10-16T00:03:26.256Z,26.53
2017-10-16T00:05:53.770Z,23.80
2017-10-16T00:08:21.583Z,25.47
2017-10-16T00:10:49.093Z,26.50
2017-10-16T00:13:16.606Z,27.03
2017-10-16T00:15:44.585Z,27.63
2017-10-16T00:18:12.089Z,31.80
2017-10-16T00:20:39.609Z,26.93
2017-10-16T00:23:07.426Z,27.50
2017-10-16T00:25:34.950Z,28.27
2017-10-16T00:28:02.470Z,33.07
2017-10-16T00:30:31.032Z,36.73
2017-10-16T00:32:59.325Z,32.57
2017-10-16T00:35:27.594Z,29.57
2017-10-16T00:37:56.184Z,29.90
2017-10-16T00:40:24.462Z,37.97
2017-10-16T00:42:52.741Z,34.20
2017-10-16T00:45:21.332Z,40.63
2017-10-16T00:47:48.865Z,37.60
2017-10-16T00:50:16.369Z,35.87
2017-10-16T00:52:44.174Z,37.13
2017-10-16T00:55:11.715Z,33.50
2017-10-16T00:57:40.035Z,32.40
2017-10-16T01:00:07.951Z,40.33
2017-10-16T01:02:35.448Z,32.57
2017-10-16T01:05:02.978Z,35.10
2017-10-16T01:07:30.787Z,44.57
2017-10-16T01:09:59.810Z,37.30
2017-10-16T01:12:27.346Z,35.80
2017-10-16T01:14:55.261Z,33.33
2017-10-16T01:17:22.766Z,35.73
2017-10-16T01:19:50.272Z,40.90
2017-10-16T01:22:18.093Z,34.27
2017-10-16T01:24:45.618Z,36.97
2017-10-16T01:27:13.152Z,37.40
2017-10-16T01:29:40.962Z,35.50
2017-10-16T01:32:08.490Z,48.93
2017-10-16T01:34:36.009Z,44.43
2017-10-16T01:37:04.630Z,42.00
2017-10-16T01:39:32.141Z,44.90
2017-10-16T01:41:59.672Z,45.57
2017-10-16T01:44:27.517Z,38.97
2017-10-16T01:46:55.032Z,36.93
2017-10-16T01:49:22.541Z,40.77
2017-10-16T01:51:50.365Z,36.77
2017-10-16T01:54:18.651Z,40.97
2017-10-16T01:56:46.964Z,35.73
2017-10-16T01:59:14.768Z,49.90
2017-10-16T02:01:42.358Z,37.00
2017-10-16T02:04:09.885Z,41.90
2017-10-16T02:06:37.826Z,47.27
2017-10-16T02:09:05.358Z,42.43
2017-10-16T02:11:32.853Z,44.00
2017-10-16T02:14:00.708Z,43.00
2017-10-16T02:16:28.239Z,42.00
2017-10-16T02:18:56.512Z,42.20
2017-10-16T02:21:25.114Z,35.87
2017-10-16T02:23:52.620Z,36.63
2017-10-16T02:26:20.126Z,47.90
2017-10-16T02:28:48.012Z,39.53
2017-10-16T02:31:15.537Z,49.83
2017-10-16T02:33:43.085Z,44.27
2017-10-16T02:36:11.033Z,55.67
2017-10-16T02:38:38.538Z,42.47
2017-10-16T02:41:06.818Z,45.37
2017-10-16T02:43:34.641Z,50.90
2017-10-16T02:46:02.147Z,54.63
2017-10-16T02:48:29.679Z,46.97
2017-10-16T02:50:57.519Z,44.60
2017-10-16T02:53:25.035Z,44.60
2017-10-16T02:55:53.317Z,42.27
2017-10-16T02:58:21.121Z,42.20
2017-10-16T03:00:48.631Z,43.97
2017-10-16T03:03:16.918Z,51.43
2017-10-16T03:05:44.798Z,46.20
2017-10-16T03:08:12.307Z,51.23
2017-10-16T03:10:39.829Z,44.53
2017-10-16T03:13:07.687Z,41.63
2017-10-16T03:15:35.242Z,40.67
2017-10-16T03:18:02.740Z,42.20
2017-10-16T03:20:30.596Z,50.23
2017-10-16T03:22:58.109Z,50.00
2017-10-16T03:25:26.391Z,43.93
2017-10-16T03:27:55.045Z,47.90
2017-10-16T03:30:22.559Z,39.07
2017-10-16T03:32:50.082Z,47.73
2017-10-16T03:35:18.666Z,42.23
2017-10-16T03:37:46.941Z,39.50
2017-10-16T03:40:14.458Z,55.80
2017-10-16T03:42:42.297Z,42.33
2017-10-16T03:45:09.805Z,43.57
2017-10-16T03:47:37.309Z,53.53
2017-10-16T03:50:05.213Z,56.10
2017-10-16T03:52:32.726Z,44.93
2017-10-16T03:55:01.010Z,73.73
2017-10-16T03:57:29.621Z,50.53
2017-10-16T03:59:57.130Z,43.90
2017-10-16T04:02:25.426Z,52.20
2017-10-16T04:04:53.244Z,56.60
2017-10-16T04:07:20.754Z,54.87
2017-10-16T04:09:49.042Z,48.83
2017-10-16T04:12:17.678Z,64.10
2017-10-16T04:14:45.209Z,57.10
2017-10-16T04:17:12.714Z,67.57
2017-10-16T04:19:40.601Z,71.00
2017-10-16T04:22:08.159Z,59.30
2017-10-16T04:24:36.459Z,76.87
2017-10-16T04:27:04.342Z,76.37
2017-10-16T04:29:31.866Z,82.00
2017-10-16T04:32:00.153Z,82.37
2017-10-16T04:34:27.958Z,75.77
2017-10-16T04:36:55.469Z,69.23
2017-10-16T04:39:23.793Z,83.23
2017-10-16T04:41:52.277Z,81.13
2017-10-16T04:44:19.794Z,88.63
2017-10-16T04:46:48.080Z,82.23
2017-10-16T04:49:15.913Z,84.87
2017-10-16T04:51:43.434Z,77.20
2017-10-16T04:54:10.946Z,86.23
2017-10-16T04:56:38.772Z,89.83
2017-10-16T04:59:06.287Z,96.27
2017-10-16T05:01:34.584Z,83.20
2017-10-16T05:04:02.494Z,84.33
2017-10-16T05:06:30.053Z,76.97
2017-10-16T05:08:57.663Z,90.53
2017-10-16T05:11:25.691Z,80.27
2017-10-16T05:13:53.214Z,93.60
2017-10-16T05:16:20.723Z,74.93
2017-10-16T05:18:48.557Z,83.23
2017-10-16T05:21:16.081Z,82.60
2017-10-16T05:23:43.605Z,78.43
2017-10-16T05:26:11.638Z,95.33
2017-10-16T05:28:39.167Z,90.70
2017-10-16T05:31:07.474Z,90.57
2017-10-16T05:33:35.358Z,96.83
2017-10-16T05:36:02.878Z,81.43
2017-10-16T05:38:30.377Z,80.93
2017-10-16T05:40:58.330Z,73.37
2017-10-16T05:43:25.833Z,73.10
2017-10-16T05:45:53.356Z,72.67
2017-10-16T05:48:20.889Z,76.43
2017-10-16T05:50:48.399Z,76.20
2017-10-16T05:53:16.414Z,87.43
2017-10-16T05:55:44.685Z,77.90
2017-10-16T05:58:12.976Z,71.80
2017-10-16T06:00:40.703Z,76.80
2017-10-16T06:03:08.236Z,79.50
2017-10-16T06:05:35.775Z,86.07
2017-10-16T06:08:03.343Z,64.27
2017-10-16T06:10:30.870Z,71.30
2017-10-16T06:12:59.162Z,68.70
2017-10-16T06:15:26.684Z,74.60
2017-10-16T06:17:54.225Z,69.90
2017-10-16T06:20:21.733Z,62.83
2017-10-16T06:22:49.255Z,61.80
2017-10-16T06:25:16.779Z,69.10
2017-10-16T06:27:44.354Z,65.27
2017-10-16T06:30:11.898Z,74.97
2017-10-16T06:32:39.515Z,65.90
2017-10-16T06:35:07.794Z,63.90
2017-10-16T06:37:36.119Z,68.03
2017-10-16T06:40:03.653Z,68.37
2017-10-16T06:42:31.943Z,73.90
2017-10-16T06:44:59.810Z,66.40
2017-10-16T06:47:27.404Z,61.83
2017-10-16T06:49:54.910Z,68.37
2017-10-16T06:52:23.211Z,65.20
2017-10-16T06:54:50.730Z,63.07
2017-10-16T06:57:18.309Z,66.83
2017-10-16T06:59:45.818Z,67.80
2017-10-16T07:02:13.351Z,54.97
2017-10-16T07:04:40.881Z,59.70
2017-10-16T07:07:09.208Z,57.83
2017-10-16T07:09:36.729Z,77.33
2017-10-16T07:12:05.043Z,57.03
2017-10-16T07:14:32.590Z,61.00
2017-10-16T07:17:00.125Z,55.73
2017-10-16T07:19:28.421Z,60.47
2017-10-16T07:21:55.961Z,47.13
2017-10-16T07:24:24.289Z,53.17
2017-10-16T07:26:51.822Z,48.50
2017-10-16T07:29:19.332Z,46.50
2017-10-16T07:31:46.885Z,51.30
2017-10-16T07:34:14.637Z,50.77
2017-10-16T07:36:42.226Z,40.43
2017-10-16T07:39:09.789Z,36.67
2017-10-16T07:41:37.344Z,41.13
2017-10-16T07:44:04.874Z,36.60
2017-10-16T07:46:32.410Z,35.10
2017-10-16T07:48:59.938Z,41.60
2017-10-16T07:51:28.261Z,39.00
2017-10-16T07:53:55.761Z,38.17
2017-10-16T07:56:23.308Z,36.47
2017-10-16T07:58:50.823Z,37.90
2017-10-16T08:01:19.427Z,41.70
2017-10-16T08:03:46.931Z,32.47
2017-10-16T08:06:14.447Z,33.73
2017-10-16T08:08:42.000Z,28.83
2017-10-16T08:11:09.539Z,30.60
2017-10-16T08:13:37.811Z,31.43
2017-10-16T08:16:06.145Z,27.17
2017-10-16T08:18:33.684Z,24.73
2017-10-16T08:21:01.193Z,28.83
2017-10-16T08:23:29.019Z,27.07
2017-10-16T08:25:56.533Z,26.07
2017-10-16T08:28:24.848Z,26.03
2017-10-16T08:30:52.384Z,28.63
2017-10-16T08:33:20.990Z,32.00
2017-10-16T08:35:49.306Z,23.67
2017-10-16T08:38:16.840Z,25.67
2017-10-16T08:40:44.380Z,25.53
2017-10-16T08:43:11.915Z,23.03
2017-10-16T08:45:40.333Z,24.30
2017-10-16T08:48:08.159Z,23.53
2017-10-16T08:50:36.439Z,26.37
2017-10-16T08:53:04.741Z,29.17
2017-10-16T08:55:32.374Z,21.27
2017-10-16T08:58:00.646Z,22.03
2017-10-16T09:00:33.720Z,21.90
2017-10-16T09:03:01.230Z,17.90
2017-10-16T09:05:28.786Z,18.93
2017-10-16T09:07:56.335Z,21.43
2017-10-16T09:10:24.626Z,19.10
2017-10-16T09:12:52.161Z,21.03
2017-10-16T09:15:19.681Z,17.27
2017-10-16T09:17:47.215Z,18.33
2017-10-16T09:20:14.760Z,16.97
2017-10-16T09:22:42.310Z,18.03
2017-10-16T09:25:10.647Z,22.00
2017-10-16T09:27:38.162Z,19.23
2017-10-16T09:30:05.687Z,18.27
2017-10-16T09:32:33.221Z,19.30
2017-10-16T09:35:00.739Z,21.60
2017-10-16T09:37:28.297Z,20.17
2017-10-16T09:39:55.806Z,17.97
2017-10-16T09:42:23.321Z,20.43
2017-10-16T09:44:50.869Z,17.90
2017-10-16T09:47:19.152Z,19.90
2017-10-16T09:49:46.718Z,21.07
2017-10-16T09:52:14.238Z,15.17
2017-10-16T09:54:41.773Z,21.23
2017-10-16T09:57:09.307Z,19.13
2017-10-16T09:59:36.838Z,15.60
2017-10-16T10:02:04.402Z,15.63
2017-10-16T10:04:32.695Z,16.13
2017-10-16T10:07:00.207Z,14.70
2017-10-16T10:09:27.748Z,15.30
2017-10-16T10:11:55.268Z,17.20
2017-10-16T10:14:23.598Z,15.33
2017-10-16T10:16:51.121Z,14.53
2017-10-16T10:19:18.647Z,15.07
2017-10-16T10:21:46.170Z,15.73
2017-10-16T10:24:13.684Z,17.87
2017-10-16T10:26:42.283Z,14.73
2017-10-16T10:29:09.811Z,14.80
2017-10-16T10:31:38.101Z,15.27
2017-10-16T10:34:06.409Z,16.40
2017-10-16T10:36:33.929Z,14.93
2017-10-16T10:39:01.483Z,14.70
2017-10-16T10:41:29.001Z,13.50
2017-10-16T10:43:56.526Z,13.63
2017-10-16T10:46:24.858Z,13.17
2017-10-16T10:48:52.387Z,13.27
2017-10-16T10:51:19.952Z,13.30
2017-10-16T10:53:47.481Z,11.17
2017-10-16T10:56:15.754Z,12.03
2017-10-16T10:58:44.067Z,12.10
2017-10-16T11:01:11.667Z,10.17
2017-10-16T11:03:39.988Z,12.70
2017-10-16T11:06:07.501Z,10.50
2017-10-16T11:08:35.002Z,10.30
2017-10-16T11:11:03.335Z,10.37
2017-10-16T11:13:31.791Z,11.50
2017-10-16T11:15:59.367Z,10.77
2017-10-16T11:18:26.894Z,9.67
2017-10-16T11:20:54.414Z,10.50
2017-10-16T11:23:21.955Z,10.30
2017-10-16T11:25:49.497Z,9.63
2017-10-16T11:28:17.056Z,10.40
2017-10-16T11:30:44.564Z,10.37
2017-10-16T11:33:12.926Z,11.00
2017-10-16T11:35:40.483Z,10.67
2017-10-16T11:38:07.981Z,9.53
2017-10-16T11:40:36.287Z,10.00
2017-10-16T11:43:03.826Z,11.10
2017-10-16T11:45:34.490Z,11.13
2017-10-16T11:48:02.031Z,10.50
2017-10-16T11:50:29.577Z,11.60
2017-10-16T11:52:57.146Z,8.93
2017-10-16T11:55:24.668Z,10.23
2017-10-16T11:57:52.245Z,9.97
2017-10-16T12:00:20.571Z,10.80
2017-10-16T12:02:48.126Z,14.03
2017-10-16T12:05:15.735Z,10.33
2017-10-16T12:07:43.306Z,9.57
2017-10-16T12:10:11.614Z,9.87
2017-10-16T12:12:39.184Z,10.80
2017-10-16T12:15:07.459Z,10.43
2017-10-16T12:17:35.000Z,9.77
2017-10-16T12:20:02.571Z,10.40
2017-10-16T12:22:30.118Z,10.60
2017-10-16T12:24:57.719Z,9.47
2017-10-16T12:27:25.266Z,11.20
2017-10-16T12:29:52.826Z,9.63
2017-10-16T12:32:20.351Z,9.90
2017-10-16T12:34:48.678Z,8.87
2017-10-16T12:37:16.246Z,8.93
2017-10-16T12:39:43.758Z,8.90
2017-10-16T12:42:11.735Z,9.37
2017-10-16T12:44:39.250Z,8.40
2017-10-16T12:47:06.774Z,9.20
2017-10-16T12:49:35.138Z,8.83
2017-10-16T12:52:02.650Z,9.93
2017-10-16T12:54:30.280Z,8.40
2017-10-16T12:56:57.789Z,8.80
2017-10-16T12:59:25.333Z,8.10
2017-10-16T13:01:52.937Z,9.17
2017-10-16T13:04:20.463Z,9.20
2017-10-16T13:06:48.062Z,8.90
2017-10-16T13:09:15.649Z,9.80
2017-10-16T13:11:44.703Z,8.37
2017-10-16T13:30:34.474Z,9.83
2017-10-16T13:33:07.122Z,8.77
2017-10-16T13:35:34.850Z,8.23
2017-10-16T13:41:11.238Z,9.20
2017-10-16T13:43:46.520Z,9.67
2017-10-16T13:46:14.183Z,7.63
2017-10-16T13:48:51.334Z,9.83
2017-10-16T13:51:19.677Z,9.23
2017-10-16T13:53:48.089Z,10.67
2017-10-16T13:56:15.616Z,7.80
2017-10-16T13:58:43.840Z,7.80
2017-10-16T14:01:11.392Z,8.43
2017-10-16T14:03:38.994Z,8.97
2017-10-16T14:06:06.688Z,13.03
2017-10-16T14:08:34.301Z,8.23
2017-10-16T14:11:01.872Z,7.53
2017-10-16T14:13:29.450Z,8.33
2017-10-16T14:15:57.072Z,8.93
2017-10-16T14:18:24.593Z,7.60
2017-10-16T14:20:52.105Z,8.57
2017-10-16T14:23:19.746Z,11.40
2017-10-16T14:25:47.249Z,7.90
2017-10-16T14:28:14.808Z,8.40
2017-10-16T14:30:42.454Z,8.27
2017-10-16T14:33:10.018Z,8.63
2017-10-16T14:35:37.572Z,8.33
2017-10-16T14:38:05.081Z,11.70
2017-10-16T14:40:32.643Z,9.70
2017-10-16T14:43:00.166Z,8.57
2017-10-16T14:45:27.807Z,8.40
2017-10-16T14:47:55.404Z,9.97
2017-10-16T14:50:23.003Z,8.43
2017-10-16T14:52:51.382Z,8.47
2017-10-16T14:55:19.694Z,8.87
2017-10-16T14:57:47.244Z,9.77
2017-10-16T15:00:15.549Z,8.23
2017-10-16T15:02:43.058Z,12.27
2017-10-16T15:05:11.361Z,9.20
2017-10-16T15:07:38.874Z,9.20
2017-10-16T15:10:06.391Z,9.57
2017-10-16T15:12:33.979Z,8.80
2017-10-16T15:15:01.598Z,10.07
2017-10-16T15:17:29.211Z,10.10
2017-10-16T15:19:57.180Z,10.13
2017-10-16T15:22:24.959Z,9.97
2017-10-16T15:24:53.764Z,10.73
2017-10-16T15:27:23.003Z,8.90
2017-10-16T15:29:51.834Z,9.47
2017-10-16T15:32:19.768Z,10.53
2017-10-16T15:34:48.514Z,11.50
2017-10-16T15:37:16.918Z,11.30
2017-10-16T15:39:44.594Z,12.17
2017-10-16T15:42:12.949Z,16.63
2017-10-16T15:44:41.711Z,13.13
2017-10-16T15:47:10.725Z,16.47
2017-10-16T15:49:38.841Z,14.37
2017-10-16T15:52:07.520Z,12.07
2017-10-16T15:54:35.172Z,12.90
2017-10-16T15:57:06.433Z,16.10
2017-10-16T15:59:34.040Z,15.40
2017-10-16T16:02:03.534Z,19.50
2017-10-16T16:04:31.159Z,14.20
2017-10-16T16:07:00.106Z,15.77
2017-10-16T16:09:28.002Z,27.77
2017-10-16T16:11:55.530Z,32.07
2017-10-16T16:14:23.141Z,27.37
2017-10-16T16:16:50.678Z,24.23
2017-10-16T16:19:18.302Z,17.87
2017-10-16T16:21:45.850Z,19.20
2017-10-16T16:24:13.386Z,21.70
2017-10-16T16:26:40.957Z,30.20
2017-10-16T16:29:08.467Z,23.53
2017-10-16T16:31:36.783Z,29.13
2017-10-16T16:34:04.344Z,24.67
2017-10-16T16:36:32.860Z,40.07
2017-10-16T16:39:00.522Z,33.63
2017-10-16T16:41:28.093Z,26.30
2017-10-16T16:43:55.902Z,24.93
2017-10-16T16:46:23.427Z,28.73
2017-10-16T16:48:51.039Z,28.50
2017-10-16T16:51:18.604Z,25.67
2017-10-16T16:53:49.342Z,29.70
2017-10-16T16:56:17.212Z,27.93
2017-10-16T16:58:44.745Z,31.43
2017-10-16T17:01:12.304Z,25.80
2017-10-16T17:03:39.875Z,24.43
2017-10-16T17:06:07.417Z,23.93
2017-10-16T17:08:35.811Z,19.80
2017-10-16T17:11:03.350Z,21.13
2017-10-16T17:13:31.652Z,18.27
2017-10-16T17:15:59.199Z,18.27
2017-10-16T17:18:26.754Z,21.70
2017-10-16T17:20:55.040Z,20.30
2017-10-16T17:23:22.607Z,20.27
2017-10-16T17:25:50.140Z,21.43
2017-10-16T17:28:18.493Z,19.97
2017-10-16T17:30:46.025Z,20.53
2017-10-16T17:33:13.608Z,19.63
2017-10-16T17:35:41.164Z,21.30
2017-10-16T17:38:08.756Z,22.47
2017-10-16T17:40:36.344Z,19.07
2017-10-16T17:43:03.892Z,19.83
2017-10-16T17:45:31.471Z,19.30
2017-10-16T17:47:59.062Z,20.20
2017-10-16T17:50:26.580Z,21.67
2017-10-16T17:52:55.020Z,20.63
2017-10-16T17:55:22.570Z,22.13
2017-10-16T17:57:50.146Z,25.67
2017-10-16T18:00:17.687Z,23.50
2017-10-16T18:02:45.287Z,19.47
2017-10-16T18:05:13.612Z,22.23
2017-10-16T18:07:41.226Z,20.00
2017-10-16T18:10:08.859Z,24.70
2017-10-16T18:12:36.491Z,23.07
2017-10-16T18:15:04.025Z,21.80
2017-10-16T18:17:32.448Z,23.27
2017-10-16T18:20:00.061Z,23.77
2017-10-16T18:22:28.399Z,22.93
2017-10-16T18:24:56.008Z,26.47
2017-10-16T18:27:25.408Z,20.90
2017-10-16T18:29:53.732Z,26.20
2017-10-16T18:32:21.293Z,22.30
2017-10-16T18:34:48.849Z,23.77
2017-10-16T18:37:16.424Z,22.30
2017-10-16T18:39:44.122Z,27.33
2017-10-16T18:42:12.969Z,29.17
2017-10-16T18:44:40.902Z,25.70
2017-10-16T18:47:08.629Z,25.23
2017-10-16T18:49:36.421Z,24.10
2017-10-16T18:52:04.247Z,23.37
2017-10-16T18:54:32.770Z,22.57
2017-10-16T18:57:02.307Z,23.20
2017-10-16T18:59:34.945Z,23.43
2017-10-16T19:02:05.683Z,27.73
2017-10-16T19:07:43.774Z,24.20
2017-10-16T19:23:35.899Z,24.43
2017-10-16T19:26:03.573Z,24.00
2017-10-16T19:28:31.204Z,27.33
2017-10-16T19:30:58.772Z,25.63
2017-10-16T19:33:26.357Z,28.97
2017-10-16T19:35:54.188Z,27.97
2017-10-16T19:38:21.870Z,24.20
2017-10-16T19:40:49.706Z,23.30
2017-10-16T19:43:17.284Z,25.47
2017-10-16T19:45:44.932Z,22.80
2017-10-16T19:48:13.037Z,24.50
2017-10-16T19:50:40.630Z,23.30
2017-10-16T19:53:08.225Z,34.77
2017-10-16T19:55:35.806Z,24.70
2017-10-16T19:58:03.372Z,24.63
2017-10-16T20:00:30.972Z,25.80
2017-10-16T20:02:58.653Z,26.27
2017-10-16T20:05:26.231Z,29.60
2017-10-16T20:07:54.550Z,25.70
2017-10-16T20:10:22.110Z,26.47
2017-10-16T20:12:49.896Z,24.70
2017-10-16T20:15:18.399Z,27.43
2017-10-16T20:17:46.020Z,32.10
2017-10-16T20:20:13.632Z,26.33
2017-10-16T20:22:41.306Z,28.73
2017-10-16T20:25:09.615Z,31.47
2017-10-16T20:27:38.263Z,27.30
2017-10-16T20:30:05.801Z,29.97
2017-10-16T20:32:33.388Z,25.87
2017-10-16T20:35:01.740Z,31.33
2017-10-16T20:37:29.381Z,31.40
2017-10-16T20:39:57.053Z,30.50
2017-10-16T20:42:24.596Z,28.07
2017-10-16T20:44:52.168Z,29.90
2017-10-16T20:47:19.749Z,29.83
2017-10-16T20:49:47.382Z,30.00
2017-10-16T20:52:15.013Z,26.33
2017-10-16T20:54:43.292Z,27.23
2017-10-16T20:57:11.639Z,32.27
2017-10-16T20:59:39.227Z,29.20
2017-10-16T21:02:07.583Z,30.57
2017-10-16T21:04:35.156Z,29.60
2017-10-16T21:07:02.755Z,25.83
2017-10-16T21:09:53.674Z,33.27
2017-10-16T21:12:21.234Z,33.03
2017-10-16T21:14:48.802Z,30.47
2017-10-16T21:17:16.341Z,30.00
2017-10-16T21:19:43.900Z,35.53
2017-10-16T21:22:11.459Z,30.03
2017-10-16T21:24:39.000Z,28.60
2017-10-16T21:27:07.348Z,28.60
2017-10-16T21:29:34.857Z,31.43
2017-10-16T21:32:02.390Z,26.93
2017-10-16T21:34:30.712Z,26.53
2017-10-16T21:36:58.293Z,30.17
2017-10-16T21:39:25.845Z,32.27
2017-10-16T21:41:53.410Z,29.97
2017-10-16T21:44:20.934Z,31.97
2017-10-16T21:46:48.497Z,37.63
2017-10-16T21:49:16.037Z,34.17
2017-10-16T21:51:44.438Z,34.37
2017-10-16T21:54:11.998Z,30.57
2017-10-16T21:56:39.522Z,32.23
2017-10-16T21:59:07.101Z,31.67
2017-10-16T22:01:35.416Z,34.90
2017-10-16T22:04:02.978Z,36.93
2017-10-16T22:06:30.511Z,32.80
2017-10-16T22:08:58.797Z,30.77
2017-10-16T22:11:26.345Z,33.33
2017-10-16T22:13:54.646Z,33.93
2017-10-16T22:16:22.214Z,35.10
2017-10-16T22:18:55.817Z,32.00
2017-10-16T22:21:23.375Z,29.17
2017-10-16T22:23:50.873Z,36.37
2017-10-16T22:26:18.397Z,39.57
2017-10-16T22:28:45.959Z,33.00
2017-10-16T22:31:13.480Z,36.20
2017-10-16T22:33:41.806Z,40.73
2017-10-16T22:36:09.340Z,45.33
2017-10-16T22:38:36.850Z,39.73
2017-10-16T22:41:04.382Z,42.40
2017-10-16T22:43:45.086Z,33.70
2017-10-16T22:46:12.672Z,32.83
2017-10-16T22:48:43.759Z,34.27
2017-10-16T22:51:11.271Z,36.90
2017-10-16T22:53:39.690Z,36.50
2017-10-16T22:56:07.245Z,39.67
2017-10-16T22:58:34.780Z,37.60
2017-10-16T23:01:03.054Z,35.07
2017-10-16T23:03:30.613Z,41.67
2017-10-16T23:05:58.896Z,44.53
2017-10-16T23:08:27.234Z,43.30
2017-10-16T23:10:54.761Z,46.40
2017-10-16T23:13:22.275Z,42.23
2017-10-16T23:15:50.604Z,31.90
2017-10-16T23:18:18.117Z,43.37
2017-10-16T23:20:46.452Z,43.80
2017-10-16T23:23:13.978Z,40.60
2017-10-16T23:25:41.526Z,35.63
2017-10-16T23:28:09.842Z,40.90
2017-10-16T23:30:37.378Z,36.07
2017-10-16T23:33:04.935Z,41.17
2017-10-16T23:35:33.239Z,41.50
2017-10-16T23:38:00.790Z,34.27
2017-10-16T23:40:28.370Z,41.07
2017-10-16T23:42:55.919Z,36.23
2017-10-16T23:45:23.500Z,39.87
2017-10-16T23:47:51.019Z,36.93
2017-10-16T23:50:18.535Z,42.30
2017-10-16T23:52:46.085Z,51.60
2017-10-16T23:55:13.625Z,40.10
2017-10-16T23:57:41.162Z,41.67
